createdAt,value
2023-02-27T08:41:39.671Z,98384.00
2023-02-27T08:44:07.521Z,98362.00
2023-02-27T08:46:34.893Z,98392.00
2023-02-27T08:49:02.244Z,98384.00
2023-02-27T08:51:30.004Z,98396.00
2023-02-27T08:53:59.113Z,98394.00
2023-02-27T08:56:28.363Z,98396.00
2023-02-27T08:58:56.412Z,98406.00
2023-02-27T09:01:26.160Z,98407.00
2023-02-27T09:03:53.807Z,98419.00
2023-02-27T09:06:21.128Z,98411.00
2023-02-27T09:08:48.429Z,98414.00
2023-02-27T09:11:15.764Z,98426.00
2023-02-27T09:13:43.031Z,98420.00
2023-02-27T09:16:10.414Z,98426.00
2023-02-27T09:18:37.751Z,98428.00
2023-02-27T09:21:05.229Z,98432.00
2023-02-27T09:23:32.583Z,98426.00
2023-02-27T09:25:59.875Z,98434.00
2023-02-27T09:28:27.370Z,98433.00
2023-02-27T09:30:54.714Z,98442.00
2023-02-27T09:33:22.011Z,98445.00
2023-02-27T09:35:49.385Z,98447.00
2023-02-27T09:38:16.740Z,98442.00
2023-02-27T09:40:50.293Z,98459.00
2023-02-27T09:43:50.691Z,98452.00
2023-02-27T09:46:23.358Z,98459.00
2023-02-27T09:49:01.940Z,98471.00
2023-02-27T09:51:29.847Z,98473.00
2023-02-27T09:54:01.715Z,98472.00
2023-02-27T09:56:46.480Z,98478.00
2023-02-27T10:00:24.416Z,98485.00
2023-02-27T10:03:19.801Z,98492.00
2023-02-27T10:06:33.889Z,98493.00
2023-02-27T10:09:34.814Z,98501.00
2023-02-27T10:12:45.812Z,98501.00
2023-02-27T10:15:38.944Z,98510.00
2023-02-27T10:18:31.277Z,98507.00
2023-02-27T10:21:10.711Z,98515.00
2023-02-27T10:24:18.123Z,98513.00
2023-02-27T10:26:46.225Z,98512.00
2023-02-27T10:29:41.632Z,98525.00
2023-02-27T10:32:35.674Z,98527.00
2023-02-27T10:35:34.837Z,98528.00
2023-02-27T10:38:48.084Z,98517.00
2023-02-27T10:41:19.136Z,98545.00
2023-02-27T10:43:46.859Z,98544.00
2023-02-27T10:46:31.039Z,98546.00
2023-02-27T10:49:05.524Z,98542.00
2023-02-27T10:51:38.335Z,98551.00
2023-02-27T10:54:23.653Z,98554.00
2023-02-27T10:57:01.092Z,98553.00
2023-02-27T10:59:38.001Z,98550.00
2023-02-27T11:02:43.651Z,98544.00
2023-02-27T11:05:36.982Z,98564.00
2023-02-27T11:08:32.172Z,98553.00
2023-02-27T11:11:11.440Z,98553.00
2023-02-27T11:13:44.951Z,98559.00
2023-02-27T11:16:23.637Z,98562.00
2023-02-27T11:18:54.359Z,98554.00
2023-02-27T11:21:30.125Z,98551.00
2023-02-27T11:24:07.741Z,98557.00
2023-02-27T11:26:41.200Z,98551.00
2023-02-27T11:29:18.964Z,98561.00
2023-02-27T11:31:57.256Z,98548.00
2023-02-27T11:34:38.354Z,98546.00
2023-02-27T11:37:36.363Z,98567.00
2023-02-27T11:40:09.909Z,98566.00
2023-02-27T11:42:51.634Z,98571.00
2023-02-27T11:46:05.090Z,98569.00
2023-02-27T11:48:39.833Z,98575.00
2023-02-27T11:51:52.105Z,98571.00
2023-02-27T11:54:54.463Z,98580.00
2023-02-27T11:57:38.178Z,98587.00
2023-02-27T12:00:15.995Z,98572.00
2023-02-27T12:03:32.619Z,98582.00
2023-02-27T12:06:20.543Z,98579.00
2023-02-27T12:09:07.574Z,98582.00
2023-02-27T12:11:45.930Z,98587.00
2023-02-27T12:14:50.916Z,98586.00
2023-02-27T12:17:40.726Z,98584.00
2023-02-27T12:20:42.601Z,98579.00
2023-02-27T12:24:06.907Z,98592.00
2023-02-27T12:26:46.739Z,98587.00
2023-02-27T12:29:39.868Z,98577.00
2023-02-27T12:33:20.141Z,98587.00
2023-02-27T12:36:03.922Z,98582.00
2023-02-27T12:38:32.698Z,98577.00
2023-02-27T12:41:36.987Z,98577.00
2023-02-27T12:44:44.949Z,98573.00
2023-02-27T12:47:54.644Z,98578.00
2023-02-27T12:50:25.923Z,98577.00
2023-02-27T12:53:34.247Z,98570.00
2023-02-27T12:56:24.535Z,98580.00
2023-02-27T12:59:41.959Z,98560.00
2023-02-27T13:02:50.227Z,98580.00
2023-02-27T13:06:01.669Z,98578.00
2023-02-27T13:08:57.639Z,98584.00
2023-02-27T13:12:04.692Z,98572.00
2023-02-27T13:15:24.397Z,98569.00
2023-02-27T13:18:36.625Z,98581.00
2023-02-27T13:21:48.180Z,98582.00
2023-02-27T13:24:29.761Z,98574.00
2023-02-27T13:27:35.934Z,98566.00
2023-02-27T13:30:28.125Z,98578.00
2023-02-27T13:33:35.157Z,98575.00
2023-02-27T13:36:39.791Z,98570.00
2023-02-27T13:39:56.691Z,98567.00
2023-02-27T13:42:26.946Z,98564.00
2023-02-27T13:45:05.691Z,98548.00
2023-02-27T13:47:50.102Z,98576.00
2023-02-27T13:50:23.123Z,98564.00
2023-02-27T13:52:50.843Z,98560.00
2023-02-27T13:55:31.223Z,98558.00
2023-02-27T13:58:02.076Z,98564.00
2023-02-27T14:00:35.554Z,98565.00
2023-02-27T14:03:25.682Z,98576.00
2023-02-27T14:06:00.904Z,98568.00
2023-02-27T14:08:46.491Z,98553.00
2023-02-27T14:11:28.718Z,98555.00
2023-02-27T14:13:57.624Z,98569.00
2023-02-27T14:16:40.062Z,98577.00
2023-02-27T14:19:16.094Z,98567.00
2023-02-27T14:22:24.589Z,98571.00
2023-02-27T14:25:22.034Z,98560.00
2023-02-27T14:27:57.401Z,98575.00
2023-02-27T14:30:45.778Z,98572.00
2023-02-27T14:33:46.405Z,98580.00
2023-02-27T14:36:30.810Z,98577.00
2023-02-27T14:39:02.212Z,98577.00
2023-02-27T14:41:56.778Z,98570.00
2023-02-27T14:44:38.028Z,98571.00
2023-02-27T14:47:06.955Z,98584.00
2023-02-27T14:49:36.131Z,98573.00
2023-02-27T14:52:31.714Z,98583.00
2023-02-27T14:55:31.388Z,98582.00
2023-02-27T14:58:07.484Z,98581.00
2023-02-27T15:00:50.527Z,98574.00
2023-02-27T15:03:39.887Z,98570.00
2023-02-27T15:06:46.266Z,98573.00
2023-02-27T15:09:24.831Z,98578.00
2023-02-27T15:12:03.850Z,98571.00
2023-02-27T15:14:40.036Z,98572.00
2023-02-27T15:17:26.284Z,98576.00
2023-02-27T15:20:04.047Z,98572.00
2023-02-27T15:22:39.934Z,98566.00
2023-02-27T15:25:38.891Z,98586.00
2023-02-27T15:28:27.665Z,98586.00
2023-02-27T15:30:56.734Z,98591.00
2023-02-27T15:33:33.372Z,98577.00
2023-02-27T15:36:01.616Z,98588.00
2023-02-27T15:38:38.009Z,98593.00
2023-02-27T15:41:05.589Z,98580.00
2023-02-27T15:43:33.270Z,98592.00
2023-02-27T15:46:01.007Z,98596.00
2023-02-27T15:48:29.904Z,98599.00
2023-02-27T15:51:04.397Z,98596.00
2023-02-27T15:53:34.005Z,98596.00
2023-02-27T15:56:12.094Z,98599.00
2023-02-27T15:58:53.866Z,98597.00
2023-02-27T16:01:30.828Z,98600.00
2023-02-27T16:04:20.675Z,98601.00
2023-02-27T16:07:06.113Z,98613.00
2023-02-27T16:09:38.431Z,98607.00
2023-02-27T16:12:33.399Z,98611.00
2023-02-27T16:15:38.310Z,98609.00
2023-02-27T16:18:08.598Z,98610.00
2023-02-27T16:20:55.661Z,98621.00
2023-02-27T16:23:32.003Z,98629.00
2023-02-27T16:26:27.473Z,98631.00
2023-02-27T16:29:03.912Z,98634.00
2023-02-27T16:31:45.880Z,98639.00
2023-02-27T16:34:45.390Z,98627.00
2023-02-27T16:37:37.004Z,98637.00
2023-02-27T16:40:23.374Z,98644.00
2023-02-27T16:42:52.816Z,98643.00
2023-02-27T16:45:31.221Z,98644.00
2023-02-27T16:48:01.129Z,98654.00
2023-02-27T16:50:42.999Z,98658.00
2023-02-27T16:53:10.383Z,98674.00
2023-02-27T16:55:43.411Z,98668.00
2023-02-27T16:58:16.414Z,98665.00
2023-02-27T17:00:44.482Z,98678.00
2023-02-27T17:03:11.790Z,98662.00
2023-02-27T17:05:39.591Z,98668.00
2023-02-27T17:08:07.183Z,98670.00
2023-02-27T17:10:34.618Z,98680.00
2023-02-27T17:13:01.895Z,98691.00
2023-02-27T17:15:29.193Z,98683.00
2023-02-27T17:17:56.509Z,98684.00
2023-02-27T17:20:26.050Z,98693.00
2023-02-27T17:22:53.397Z,98687.00
2023-02-27T17:25:20.742Z,98696.00
2023-02-27T17:27:48.254Z,98695.00
2023-02-27T17:30:16.578Z,98702.00
2023-02-27T17:32:44.026Z,98709.00
2023-02-27T17:35:11.576Z,98698.00
2023-02-27T17:37:38.959Z,98703.00
2023-02-27T17:40:08.261Z,98712.00
2023-02-27T17:42:39.918Z,98710.00
2023-02-27T17:45:09.355Z,98711.00
2023-02-27T17:47:37.507Z,98721.00
2023-02-27T17:50:06.048Z,98718.00
2023-02-27T17:52:37.452Z,98722.00
2023-02-27T17:55:08.608Z,98726.00
2023-02-27T17:57:39.067Z,98723.00
2023-02-27T18:00:14.331Z,98713.00
2023-02-27T18:02:45.350Z,98749.00
2023-02-27T18:05:12.813Z,98743.00
2023-02-27T18:07:40.525Z,98744.00
2023-02-27T18:10:10.165Z,98742.00
2023-02-27T18:12:38.474Z,98745.00
2023-02-27T18:15:06.911Z,98747.00
2023-02-27T18:17:34.396Z,98760.00
2023-02-27T18:20:01.829Z,98761.00
2023-02-27T18:22:30.009Z,98767.00
2023-02-27T18:24:58.704Z,98757.00
2023-02-27T18:27:28.000Z,98777.00
2023-02-27T18:29:57.590Z,98769.00
2023-02-27T18:32:25.288Z,98757.00
2023-02-27T18:34:53.524Z,98764.00
2023-02-27T18:37:20.866Z,98765.00
2023-02-27T18:39:48.190Z,98764.00
2023-02-27T18:42:15.505Z,98760.00
2023-02-27T18:44:42.863Z,98753.00
2023-02-27T18:47:12.059Z,98771.00
2023-02-27T18:49:39.493Z,98772.00
2023-02-27T18:52:09.193Z,98760.00
2023-02-27T18:54:37.741Z,98769.00
2023-02-27T18:57:06.050Z,98739.00
2023-02-27T18:59:33.480Z,98761.00
2023-02-27T19:02:01.269Z,98764.00
2023-02-27T19:04:33.599Z,98763.00
2023-02-27T19:07:00.923Z,98763.00
2023-02-27T19:09:32.733Z,98767.00
2023-02-27T19:12:00.855Z,98764.00
2023-02-27T19:14:28.224Z,98763.00
2023-02-27T19:16:56.892Z,98766.00
2023-02-27T19:19:28.126Z,98761.00
2023-02-27T19:21:56.199Z,98758.00
2023-02-27T19:24:24.608Z,98752.00
2023-02-27T19:26:53.507Z,98755.00
2023-02-27T19:29:21.375Z,98758.00
2023-02-27T19:31:48.758Z,98754.00
2023-02-27T19:34:16.433Z,98762.00
2023-02-27T19:36:43.750Z,98758.00
2023-02-27T19:39:11.778Z,98759.00
2023-02-27T19:41:39.150Z,98752.00
2023-02-27T19:44:07.678Z,98764.00
2023-02-27T19:46:35.663Z,98761.00
2023-02-27T19:49:06.038Z,98764.00
2023-02-27T19:51:33.849Z,98751.00
2023-02-27T19:54:01.234Z,98749.00
2023-02-27T19:56:29.858Z,98747.00
2023-02-27T19:58:57.835Z,98746.00
2023-02-27T20:01:36.243Z,98752.00
2023-02-27T20:04:04.382Z,98747.00
2023-02-27T20:06:42.294Z,98750.00
2023-02-27T20:09:14.504Z,98743.00
2023-02-27T20:11:45.048Z,98745.00
2023-02-27T20:14:14.883Z,98746.00
2023-02-27T20:16:42.926Z,98754.00
2023-02-27T20:19:17.941Z,98756.00
2023-02-27T20:21:47.235Z,98745.00
2023-02-27T20:24:15.382Z,98749.00
2023-02-27T20:26:48.312Z,98754.00
2023-02-27T20:29:22.902Z,98758.00
2023-02-27T20:31:53.429Z,98760.00
2023-02-27T20:34:26.270Z,98754.00
2023-02-27T20:36:57.148Z,98748.00
2023-02-27T20:39:25.388Z,98754.00
2023-02-27T20:41:52.825Z,98756.00
